sensor_id;sensor_type;location;lat;lon;timestamp;pressure;altitude;pressure_sealevel;temperature;humidity
4392;BME280;2210;51.938;8.488;2024-02-21T00:01:33;101151.44;;;8.39;100.00
4392;BME280;2210;51.938;8.488;2024-02-21T00:05:34;101136.03;;;8.38;100.00
4392;BME280;2210;51.938;8.488;2024-02-21T00:09:46;101133.91;;;8.40;100.00
4392;BME280;2210;51.938;8.488;2024-02-21T00:13:50;101132.19;;;8.39;100.00
4392;BME280;2210;51.938;8.488;2024-02-21T00:17:53;101131.16;;;8.40;100.00
4392;BME280;2210;51.938;8.488;2024-02-21T00:21:53;101127.56;;;8.40;100.00
4392;BME280;2210;51.938;8.488;2024-02-21T00:26:03;101120.16;;;8.40;100.00
4392;BME280;2210;51.938;8.488;2024-02-21T00:30:07;101114.03;;;8.38;100.00
4392;BME280;2210;51.938;8.488;2024-02-21T00:34:07;101118.66;;;8.38;100.00
4392;BME280;2210;51.938;8.488;2024-02-21T00:38:07;101103.44;;;8.35;100.00
4392;BME280;2210;51.938;8.488;2024-02-21T00:42:08;101107.06;;;8.36;100.00
4392;BME280;2210;51.938;8.488;2024-02-21T00:46:08;101086.97;;;8.35;100.00
4392;BME280;2210;51.938;8.488;2024-02-21T00:50:11;101083.16;;;8.36;100.00
4392;BME280;2210;51.938;8.488;2024-02-21T00:54:21;101073.44;;;8.34;100.00
4392;BME280;2210;51.938;8.488;2024-02-21T00:58:22;101075.97;;;8.35;100.00
4392;BME280;2210;51.938;8.488;2024-02-21T01:02:23;101064.16;;;8.35;100.00
4392;BME280;2210;51.938;8.488;2024-02-21T01:06:23;101055.69;;;8.36;100.00
4392;BME280;2210;51.938;8.488;2024-02-21T01:10:27;101057.81;;;8.34;100.00
4392;BME280;2210;51.938;8.488;2024-02-21T01:14:30;101066.69;;;8.36;100.00
4392;BME280;2210;51.938;8.488;2024-02-21T01:18:40;101060.13;;;8.37;100.00
4392;BME280;2210;51.938;8.488;2024-02-21T01:22:43;101061.19;;;8.36;100.00
4392;BME280;2210;51.938;8.488;2024-02-21T01:26:46;101058.44;;;8.36;100.00
4392;BME280;2210;51.938;8.488;2024-02-21T01:30:46;101048.28;;;8.37;100.00
4392;BME280;2210;51.938;8.488;2024-02-21T01:34:47;101046.59;;;8.36;100.00
4392;BME280;2210;51.938;8.488;2024-02-21T01:38:50;101031.16;;;8.35;100.00
4392;BME280;2210;51.938;8.488;2024-02-21T01:42:50;101032.88;;;8.36;100.00
4392;BME280;2210;51.938;8.488;2024-02-21T01:46:53;101027.16;;;8.37;100.00
4392;BME280;2210;51.938;8.488;2024-02-21T01:50:54;101029.91;;;8.37;100.00
4392;BME280;2210;51.938;8.488;2024-02-21T01:54:59;101018.28;;;8.35;100.00
4392;BME280;2210;51.938;8.488;2024-02-21T01:59:00;101013.84;;;8.34;100.00
4392;BME280;2210;51.938;8.488;2024-02-21T02:03:03;101005.59;;;8.34;100.00
4392;BME280;2210;51.938;8.488;2024-02-21T02:07:26;100992.50;;;8.36;100.00
4392;BME280;2210;51.938;8.488;2024-02-21T02:11:26;100985.94;;;8.37;100.00
4392;BME280;2210;51.938;8.488;2024-02-21T02:15:37;100976.00;;;8.36;100.00
4392;BME280;2210;51.938;8.488;2024-02-21T02:19:37;100978.97;;;8.41;100.00
4392;BME280;2210;51.938;8.488;2024-02-21T02:23:44;100983.19;;;8.37;100.00
4392;BME280;2210;51.938;8.488;2024-02-21T02:27:44;100979.59;;;8.37;100.00
4392;BME280;2210;51.938;8.488;2024-02-21T02:31:49;100963.97;;;8.37;100.00
4392;BME280;2210;51.938;8.488;2024-02-21T02:35:49;100978.31;;;8.39;100.00
4392;BME280;2210;51.938;8.488;2024-02-21T02:39:52;100980.25;;;8.39;100.00
4392;BME280;2210;51.938;8.488;2024-02-21T02:43:52;100966.50;;;8.39;100.00
4392;BME280;2210;51.938;8.488;2024-02-21T02:47:56;100955.50;;;8.39;100.00
4392;BME280;2210;51.938;8.488;2024-02-21T02:51:57;100947.47;;;8.37;100.00
4392;BME280;2210;51.938;8.488;2024-02-21T02:55:57;100942.00;;;8.37;100.00
4392;BME280;2210;51.938;8.488;2024-02-21T03:00:00;100937.53;;;8.36;100.00
4392;BME280;2210;51.938;8.488;2024-02-21T03:04:00;100917.03;;;8.32;100.00
4392;BME280;2210;51.938;8.488;2024-02-21T03:08:04;100917.88;;;8.33;100.00
4392;BME280;2210;51.938;8.488;2024-02-21T03:12:07;100890.41;;;8.33;100.00
4392;BME280;2210;51.938;8.488;2024-02-21T03:16:17;100888.75;;;8.32;100.00
4392;BME280;2210;51.938;8.488;2024-02-21T03:20:17;100878.59;;;8.32;100.00
4392;BME280;2210;51.938;8.488;2024-02-21T03:24:19;100880.69;;;8.30;100.00
4392;BME280;2210;51.938;8.488;2024-02-21T03:28:25;100873.31;;;8.31;100.00
4392;BME280;2210;51.938;8.488;2024-02-21T03:32:26;100881.78;;;8.29;100.00
4392;BME280;2210;51.938;8.488;2024-02-21T03:36:28;100883.44;;;8.30;100.00
4392;BME280;2210;51.938;8.488;2024-02-21T03:40:31;100901.63;;;8.31;100.00
4392;BME280;2210;51.938;8.488;2024-02-21T03:44:50;100900.34;;;8.34;100.00
4392;BME280;2210;51.938;8.488;2024-02-21T03:48:53;100906.69;;;8.34;100.00
4392;BME280;2210;51.938;8.488;2024-02-21T03:52:53;100905.00;;;8.33;100.00
4392;BME280;2210;51.938;8.488;2024-02-21T03:56:54;100919.34;;;8.35;100.00
4392;BME280;2210;51.938;8.488;2024-02-21T04:01:00;100910.28;;;8.35;100.00
4392;BME280;2210;51.938;8.488;2024-02-21T04:05:03;100903.31;;;8.32;100.00
4392;BME280;2210;51.938;8.488;2024-02-21T04:09:04;100891.28;;;8.33;100.00
4392;BME280;2210;51.938;8.488;2024-02-21T04:13:06;100897.59;;;8.34;100.00
4392;BME280;2210;51.938;8.488;2024-02-21T04:17:07;100895.72;;;8.34;100.00
4392;BME280;2210;51.938;8.488;2024-02-21T04:21:17;100905.63;;;8.35;100.00
4392;BME280;2210;51.938;8.488;2024-02-21T04:25:17;100908.16;;;8.37;100.00
4392;BME280;2210;51.938;8.488;2024-02-21T04:29:17;100901.81;;;8.36;100.00
4392;BME280;2210;51.938;8.488;2024-02-21T04:33:17;100896.34;;;8.36;100.00
4392;BME280;2210;51.938;8.488;2024-02-21T04:37:18;100899.06;;;8.36;100.00
4392;BME280;2210;51.938;8.488;2024-02-21T04:41:24;100895.88;;;8.39;100.00
4392;BME280;2210;51.938;8.488;2024-02-21T04:45:25;100899.72;;;8.38;100.00
4392;BME280;2210;51.938;8.488;2024-02-21T04:49:25;100895.50;;;8.42;100.00
4392;BME280;2210;51.938;8.488;2024-02-21T04:53:25;100905.84;;;8.40;100.00
4392;BME280;2210;51.938;8.488;2024-02-21T04:57:26;100906.66;;;8.41;100.00
4392;BME280;2210;51.938;8.488;2024-02-21T05:01:28;100914.91;;;8.41;100.00
4392;BME280;2210;51.938;8.488;2024-02-21T05:05:28;100921.28;;;8.41;100.00
4392;BME280;2210;51.938;8.488;2024-02-21T05:09:28;100908.56;;;8.40;100.00
4392;BME280;2210;51.938;8.488;2024-02-21T05:13:28;100916.59;;;8.42;100.00
4392;BME280;2210;51.938;8.488;2024-02-21T05:17:29;100906.06;;;8.39;100.00
4392;BME280;2210;51.938;8.488;2024-02-21T05:21:29;100899.06;;;8.36;100.00
4392;BME280;2210;51.938;8.488;2024-02-21T05:25:29;100880.28;;;8.33;100.00
4392;BME280;2210;51.938;8.488;2024-02-21T05:29:29;100868.44;;;8.33;100.00
4392;BME280;2210;51.938;8.488;2024-02-21T05:33:30;100863.38;;;8.30;100.00
4392;BME280;2210;51.938;8.488;2024-02-21T05:37:30;100860.41;;;8.24;100.00
4392;BME280;2210;51.938;8.488;2024-02-21T05:41:30;100852.81;;;8.20;100.00
4392;BME280;2210;51.938;8.488;2024-02-21T05:45:30;100847.34;;;8.20;100.00
4392;BME280;2210;51.938;8.488;2024-02-21T05:49:37;100842.66;;;8.20;100.00
4392;BME280;2210;51.938;8.488;2024-02-21T05:53:37;100840.16;;;8.19;100.00
4392;BME280;2210;51.938;8.488;2024-02-21T05:57:40;100826.19;;;8.20;100.00
4392;BME280;2210;51.938;8.488;2024-02-21T06:01:43;100829.16;;;8.19;100.00
4392;BME280;2210;51.938;8.488;2024-02-21T06:05:44;100821.13;;;8.17;100.00
4392;BME280;2210;51.938;8.488;2024-02-21T06:09:44;100828.31;;;8.18;100.00
4392;BME280;2210;51.938;8.488;2024-02-21T06:13:45;100825.38;;;8.20;100.00
4392;BME280;2210;51.938;8.488;2024-02-21T06:17:45;100827.47;;;8.18;100.00
4392;BME280;2210;51.938;8.488;2024-02-21T06:21:48;100836.78;;;8.17;100.00
4392;BME280;2210;51.938;8.488;2024-02-21T06:25:48;100828.09;;;8.20;100.00
4392;BME280;2210;51.938;8.488;2024-02-21T06:29:48;100823.66;;;8.19;100.00
4392;BME280;2210;51.938;8.488;2024-02-21T06:33:52;100829.16;;;8.19;100.00
4392;BME280;2210;51.938;8.488;2024-02-21T06:37:52;100811.41;;;8.21;100.00
4392;BME280;2210;51.938;8.488;2024-02-21T06:41:52;100808.22;;;8.24;100.00
4392;BME280;2210;51.938;8.488;2024-02-21T06:45:53;100799.38;;;8.22;100.00
4392;BME280;2210;51.938;8.488;2024-02-21T06:49:55;100802.50;;;8.26;100.00
4392;BME280;2210;51.938;8.488;2024-02-21T06:53:55;100795.97;;;8.27;100.00
4392;BME280;2210;51.938;8.488;2024-02-21T06:57:56;100794.28;;;8.26;100.00
4392;BME280;2210;51.938;8.488;2024-02-21T07:01:56;100780.53;;;8.26;100.00
4392;BME280;2210;51.938;8.488;2024-02-21T07:05:56;100788.59;;;8.27;100.00
4392;BME280;2210;51.938;8.488;2024-02-21T07:10:03;100774.44;;;8.24;100.00
4392;BME280;2210;51.938;8.488;2024-02-21T07:14:07;100775.03;;;8.26;100.00
4392;BME280;2210;51.938;8.488;2024-02-21T07:18:13;100782.44;;;8.25;100.00
4392;BME280;2210;51.938;8.488;2024-02-21T07:22:14;100784.16;;;8.26;100.00
4392;BME280;2210;51.938;8.488;2024-02-21T07:26:14;100797.44;;;8.30;100.00
4392;BME280;2210;51.938;8.488;2024-02-21T07:30:14;100794.69;;;8.30;100.00
4392;BME280;2210;51.938;8.488;2024-02-21T07:34:14;100801.66;;;8.32;100.00
4392;BME280;2210;51.938;8.488;2024-02-21T07:38:15;100782.84;;;8.36;100.00
4392;BME280;2210;51.938;8.488;2024-02-21T07:42:15;100804.63;;;8.37;100.00
4392;BME280;2210;51.938;8.488;2024-02-21T07:46:18;100790.66;;;8.39;100.00
4392;BME280;2210;51.938;8.488;2024-02-21T07:50:22;100785.56;;;8.42;100.00
4392;BME280;2210;51.938;8.488;2024-02-21T07:54:22;100784.50;;;8.43;100.00
4392;BME280;2210;51.938;8.488;2024-02-21T07:58:22;100780.28;;;8.48;100.00
4392;BME280;2210;51.938;8.488;2024-02-21T08:02:23;100788.94;;;8.51;100.00
4392;BME280;2210;51.938;8.488;2024-02-21T08:06:23;100785.53;;;8.56;100.00
4392;BME280;2210;51.938;8.488;2024-02-21T08:10:26;100782.59;;;8.57;100.00
4392;BME280;2210;51.938;8.488;2024-02-21T08:14:26;100776.88;;;8.59;100.00
4392;BME280;2210;51.938;8.488;2024-02-21T08:18:27;100768.19;;;8.62;100.00
4392;BME280;2210;51.938;8.488;2024-02-21T08:22:30;100763.94;;;8.66;100.00
4392;BME280;2210;51.938;8.488;2024-02-21T08:26:30;100753.13;;;8.71;100.00
4392;BME280;2210;51.938;8.488;2024-02-21T08:30:34;100743.16;;;8.77;100.00
4392;BME280;2210;51.938;8.488;2024-02-21T08:34:34;100734.00;;;8.90;100.00
4392;BME280;2210;51.938;8.488;2024-02-21T08:38:34;100727.78;;;9.01;100.00
4392;BME280;2210;51.938;8.488;2024-02-21T08:42:35;100730.72;;;9.06;100.00
4392;BME280;2210;51.938;8.488;2024-02-21T08:46:35;100721.31;;;9.14;100.00
4392;BME280;2210;51.938;8.488;2024-02-21T08:50:38;100729.19;;;9.10;100.00
4392;BME280;2210;51.938;8.488;2024-02-21T08:54:38;100721.72;;;9.18;100.00
4392;BME280;2210;51.938;8.488;2024-02-21T08:58:39;100714.50;;;9.23;100.00
4392;BME280;2210;51.938;8.488;2024-02-21T09:02:40;100707.09;;;9.24;100.00
4392;BME280;2210;51.938;8.488;2024-02-21T09:06:46;100706.00;;;9.25;100.00
4392;BME280;2210;51.938;8.488;2024-02-21T09:10:46;100706.00;;;9.25;100.00
4392;BME280;2210;51.938;8.488;2024-02-21T09:14:46;100708.34;;;9.28;100.00
4392;BME280;2210;51.938;8.488;2024-02-21T09:18:52;100712.97;;;9.27;100.00
4392;BME280;2210;51.938;8.488;2024-02-21T09:22:52;100703.38;;;9.37;100.00
4392;BME280;2210;51.938;8.488;2024-02-21T09:26:53;100701.84;;;9.41;100.00
4392;BME280;2210;51.938;8.488;2024-02-21T09:30:56;100704.94;;;9.51;100.00
4392;BME280;2210;51.938;8.488;2024-02-21T09:35:02;100703.03;;;9.52;99.30
4392;BME280;2210;51.938;8.488;2024-02-21T09:39:05;100700.28;;;9.52;98.69
4392;BME280;2210;51.938;8.488;2024-02-21T09:43:05;100696.41;;;9.59;99.17
4392;BME280;2210;51.938;8.488;2024-02-21T09:47:09;100685.78;;;9.63;98.10
4392;BME280;2210;51.938;8.488;2024-02-21T09:51:14;100668.81;;;9.66;96.89
4392;BME280;2210;51.938;8.488;2024-02-21T09:55:16;100660.09;;;9.69;94.77
4392;BME280;2210;51.938;8.488;2024-02-21T09:59:17;100653.44;;;9.77;95.40
4392;BME280;2210;51.938;8.488;2024-02-21T10:03:18;100655.66;;;9.87;95.27
4392;BME280;2210;51.938;8.488;2024-02-21T10:07:18;100654.34;;;9.89;95.09
4392;BME280;2210;51.938;8.488;2024-02-21T10:11:26;100648.28;;;9.81;94.34
4392;BME280;2210;51.938;8.488;2024-02-21T10:15:26;100649.63;;;9.78;93.63
4392;BME280;2210;51.938;8.488;2024-02-21T10:19:26;100646.09;;;9.71;93.58
4392;BME280;2210;51.938;8.488;2024-02-21T10:23:27;100637.34;;;9.74;92.64
4392;BME280;2210;51.938;8.488;2024-02-21T10:27:27;100631.50;;;9.70;92.55
4392;BME280;2210;51.938;8.488;2024-02-21T10:31:28;100634.84;;;9.72;94.54
4392;BME280;2210;51.938;8.488;2024-02-21T10:35:30;100636.00;;;9.65;92.67
4392;BME280;2210;51.938;8.488;2024-02-21T10:39:32;100633.38;;;9.70;93.50
4392;BME280;2210;51.938;8.488;2024-02-21T10:43:38;100634.91;;;9.66;93.81
4392;BME280;2210;51.938;8.488;2024-02-21T10:47:42;100619.25;;;9.66;95.70
4392;BME280;2210;51.938;8.488;2024-02-21T10:51:45;100610.59;;;9.62;96.65
4392;BME280;2210;51.938;8.488;2024-02-21T10:55:50;100607.56;;;9.52;96.36
4392;BME280;2210;51.938;8.488;2024-02-21T10:59:55;100596.97;;;9.49;97.05
4392;BME280;2210;51.938;8.488;2024-02-21T11:03:57;100588.72;;;9.49;97.10
4392;BME280;2210;51.938;8.488;2024-02-21T11:07:58;100587.59;;;9.57;98.51
4392;BME280;2210;51.938;8.488;2024-02-21T11:12:02;100577.72;;;9.68;98.48
4392;BME280;2210;51.938;8.488;2024-02-21T11:20:13;100554.00;;;9.85;96.89
4392;BME280;2210;51.938;8.488;2024-02-21T11:24:13;100546.00;;;9.95;94.78
4392;BME280;2210;51.938;8.488;2024-02-21T11:28:14;100540.28;;;9.97;95.22
4392;BME280;2210;51.938;8.488;2024-02-21T11:32:26;100523.63;;;9.92;97.06
4392;BME280;2210;51.938;8.488;2024-02-21T11:36:27;100520.56;;;9.82;95.50
4392;BME280;2210;51.938;8.488;2024-02-21T11:40:27;100507.59;;;9.70;96.21
4392;BME280;2210;51.938;8.488;2024-02-21T11:44:28;100495.06;;;9.74;97.87
4392;BME280;2210;51.938;8.488;2024-02-21T11:48:28;100487.38;;;9.76;97.67
4392;BME280;2210;51.938;8.488;2024-02-21T11:52:28;100471.47;;;9.78;97.74
4392;BME280;2210;51.938;8.488;2024-02-21T11:56:29;100471.09;;;9.75;97.88
4392;BME280;2210;51.938;8.488;2024-02-21T12:00:30;100468.72;;;9.78;98.74
4392;BME280;2210;51.938;8.488;2024-02-21T12:04:30;100455.19;;;9.77;98.15
4392;BME280;2210;51.938;8.488;2024-02-21T12:08:41;100453.91;;;9.79;98.65
4392;BME280;2210;51.938;8.488;2024-02-21T12:12:42;100454.97;;;9.78;97.15
4392;BME280;2210;51.938;8.488;2024-02-21T12:16:54;100446.31;;;9.75;97.31
4392;BME280;2210;51.938;8.488;2024-02-21T12:20:58;100447.88;;;9.71;98.24
4392;BME280;2210;51.938;8.488;2024-02-21T12:24:58;100439.25;;;9.67;98.36
4392;BME280;2210;51.938;8.488;2024-02-21T12:28:59;100437.91;;;9.70;99.43
4392;BME280;2210;51.938;8.488;2024-02-21T12:32:59;100420.94;;;9.73;100.00
4392;BME280;2210;51.938;8.488;2024-02-21T12:37:01;100414.13;;;9.75;100.00
4392;BME280;2210;51.938;8.488;2024-02-21T12:41:03;100398.34;;;9.83;100.00
4392;BME280;2210;51.938;8.488;2024-02-21T12:45:04;100379.22;;;10.00;100.00
4392;BME280;2210;51.938;8.488;2024-02-21T12:49:04;100378.88;;;10.08;100.00
4392;BME280;2210;51.938;8.488;2024-02-21T12:53:04;100360.78;;;10.00;100.00
4392;BME280;2210;51.938;8.488;2024-02-21T12:57:05;100367.34;;;9.87;100.00
4392;BME280;2210;51.938;8.488;2024-02-21T13:01:05;100368.31;;;9.81;100.00
4392;BME280;2210;51.938;8.488;2024-02-21T13:05:06;100354.16;;;9.77;100.00
4392;BME280;2210;51.938;8.488;2024-02-21T13:09:07;100348.88;;;9.76;100.00
4392;BME280;2210;51.938;8.488;2024-02-21T13:13:08;100319.31;;;9.83;100.00
4392;BME280;2210;51.938;8.488;2024-02-21T13:17:08;100290.34;;;9.81;100.00
4392;BME280;2210;51.938;8.488;2024-02-21T13:21:08;100268.31;;;9.81;99.08
4392;BME280;2210;51.938;8.488;2024-02-21T13:25:09;100223.19;;;9.82;98.14
4392;BME280;2210;51.938;8.488;2024-02-21T13:29:09;100244.41;;;9.81;97.49
4392;BME280;2210;51.938;8.488;2024-02-21T13:33:09;100255.75;;;9.85;98.61
4392;BME280;2210;51.938;8.488;2024-02-21T13:37:10;100241.75;;;9.74;97.40
4392;BME280;2210;51.938;8.488;2024-02-21T13:41:10;100230.63;;;9.81;97.78
4392;BME280;2210;51.938;8.488;2024-02-21T13:45:10;100196.16;;;9.90;98.42
4392;BME280;2210;51.938;8.488;2024-02-21T13:49:10;100180.34;;;9.86;96.10
4392;BME280;2210;51.938;8.488;2024-02-21T13:53:11;100153.28;;;9.83;93.92
4392;BME280;2210;51.938;8.488;2024-02-21T13:57:11;100139.91;;;9.74;92.63
4392;BME280;2210;51.938;8.488;2024-02-21T14:01:11;100140.84;;;9.68;91.72
4392;BME280;2210;51.938;8.488;2024-02-21T14:05:12;100135.09;;;9.70;92.95
4392;BME280;2210;51.938;8.488;2024-02-21T14:09:12;100162.03;;;9.79;93.47
4392;BME280;2210;51.938;8.488;2024-02-21T14:13:12;100137.97;;;9.87;94.52
4392;BME280;2210;51.938;8.488;2024-02-21T14:17:13;100123.25;;;9.93;94.32
4392;BME280;2210;51.938;8.488;2024-02-21T14:21:13;100105.84;;;9.92;92.71
4392;BME280;2210;51.938;8.488;2024-02-21T14:25:13;100097.25;;;9.89;90.68
4392;BME280;2210;51.938;8.488;2024-02-21T14:29:15;100080.34;;;9.97;91.16
4392;BME280;2210;51.938;8.488;2024-02-21T14:33:15;100078.06;;;9.94;90.49
4392;BME280;2210;51.938;8.488;2024-02-21T14:37:16;100086.81;;;10.03;88.88
4392;BME280;2210;51.938;8.488;2024-02-21T14:41:17;100076.38;;;10.05;88.63
4392;BME280;2210;51.938;8.488;2024-02-21T14:45:18;100054.31;;;10.05;87.39
4392;BME280;2210;51.938;8.488;2024-02-21T14:49:18;100036.16;;;10.04;87.92
4392;BME280;2210;51.938;8.488;2024-02-21T14:53:19;100025.97;;;10.04;87.96
4392;BME280;2210;51.938;8.488;2024-02-21T14:57:19;100022.13;;;10.05;87.56
4392;BME280;2210;51.938;8.488;2024-02-21T15:01:20;100010.50;;;10.03;87.09
4392;BME280;2210;51.938;8.488;2024-02-21T15:05:20;99992.91;;;10.04;87.03
4392;BME280;2210;51.938;8.488;2024-02-21T15:09:21;99985.22;;;10.06;87.54
4392;BME280;2210;51.938;8.488;2024-02-21T15:13:21;99960.84;;;9.98;87.48
4392;BME280;2210;51.938;8.488;2024-02-21T15:17:22;99971.94;;;10.03;87.75
4392;BME280;2210;51.938;8.488;2024-02-21T15:21:22;99965.38;;;10.04;87.91
4392;BME280;2210;51.938;8.488;2024-02-21T15:25:22;99924.31;;;10.03;87.24
4392;BME280;2210;51.938;8.488;2024-02-21T15:29:23;99920.38;;;9.99;87.68
4392;BME280;2210;51.938;8.488;2024-02-21T15:33:24;99904.84;;;9.92;87.50
4392;BME280;2210;51.938;8.488;2024-02-21T15:37:24;99899.09;;;9.94;88.91
4392;BME280;2210;51.938;8.488;2024-02-21T15:41:26;99904.59;;;9.94;88.71
4392;BME280;2210;51.938;8.488;2024-02-21T15:45:26;99891.94;;;9.93;88.12
4392;BME280;2210;51.938;8.488;2024-02-21T15:49:26;99890.00;;;9.93;89.48
4392;BME280;2210;51.938;8.488;2024-02-21T15:53:27;99883.06;;;9.91;88.55
4392;BME280;2210;51.938;8.488;2024-02-21T15:57:27;99878.91;;;9.88;89.16
4392;BME280;2210;51.938;8.488;2024-02-21T16:01:27;99867.06;;;9.88;89.84
4392;BME280;2210;51.938;8.488;2024-02-21T16:05:27;99857.88;;;9.82;90.77
4392;BME280;2210;51.938;8.488;2024-02-21T16:09:28;99847.69;;;9.83;91.42
4392;BME280;2210;51.938;8.488;2024-02-21T16:13:32;99838.00;;;9.80;91.28
4392;BME280;2210;51.938;8.488;2024-02-21T16:17:32;99831.34;;;9.76;91.71
4392;BME280;2210;51.938;8.488;2024-02-21T16:21:32;99831.00;;;9.72;91.49
4392;BME280;2210;51.938;8.488;2024-02-21T16:25:33;99831.00;;;9.72;91.41
4392;BME280;2210;51.938;8.488;2024-02-21T16:29:33;99834.25;;;9.69;91.47
4392;BME280;2210;51.938;8.488;2024-02-21T16:33:33;99827.66;;;9.70;91.75
4392;BME280;2210;51.938;8.488;2024-02-21T16:37:34;99825.31;;;9.62;92.66
4392;BME280;2210;51.938;8.488;2024-02-21T16:41:34;99817.53;;;9.59;92.02
4392;BME280;2210;51.938;8.488;2024-02-21T16:45:34;99802.97;;;9.58;92.70
4392;BME280;2210;51.938;8.488;2024-02-21T16:49:35;99803.22;;;9.57;92.23
4392;BME280;2210;51.938;8.488;2024-02-21T16:53:35;99794.97;;;9.57;91.79
4392;BME280;2210;51.938;8.488;2024-02-21T16:57:35;99791.03;;;9.53;92.78
4392;BME280;2210;51.938;8.488;2024-02-21T17:01:39;99789.63;;;9.50;92.70
4392;BME280;2210;51.938;8.488;2024-02-21T17:05:39;99806.13;;;9.50;93.88
4392;BME280;2210;51.938;8.488;2024-02-21T17:09:39;99793.44;;;9.49;93.06
4392;BME280;2210;51.938;8.488;2024-02-21T17:13:40;99785.53;;;9.53;93.18
4392;BME280;2210;51.938;8.488;2024-02-21T17:17:41;99773.94;;;9.51;91.94
4392;BME280;2210;51.938;8.488;2024-02-21T17:21:41;99780.53;;;9.50;91.61
4392;BME280;2210;51.938;8.488;2024-02-21T17:25:45;99772.94;;;9.57;89.05
4392;BME280;2210;51.938;8.488;2024-02-21T17:29:52;99763.59;;;9.58;88.32
4392;BME280;2210;51.938;8.488;2024-02-21T17:33:52;99768.00;;;9.59;86.50
4392;BME280;2210;51.938;8.488;2024-02-21T17:37:52;99755.44;;;9.63;84.29
4392;BME280;2210;51.938;8.488;2024-02-21T17:41:53;99737.91;;;9.69;80.90
4392;BME280;2210;51.938;8.488;2024-02-21T17:45:59;99739.97;;;9.79;79.13
4392;BME280;2210;51.938;8.488;2024-02-21T17:50:00;99741.66;;;9.80;78.50
4392;BME280;2210;51.938;8.488;2024-02-21T17:54:00;99721.38;;;9.86;77.07
4392;BME280;2210;51.938;8.488;2024-02-21T17:58:00;99724.97;;;9.87;77.18
4392;BME280;2210;51.938;8.488;2024-02-21T18:02:13;99712.28;;;9.86;76.54
4392;BME280;2210;51.938;8.488;2024-02-21T18:06:19;99700.44;;;9.85;76.03
4392;BME280;2210;51.938;8.488;2024-02-21T18:10:22;99691.94;;;9.87;74.77
4392;BME280;2210;51.938;8.488;2024-02-21T18:14:22;99679.75;;;9.83;76.18
4392;BME280;2210;51.938;8.488;2024-02-21T18:18:23;99666.00;;;9.83;75.49
4392;BME280;2210;51.938;8.488;2024-02-21T18:22:26;99652.16;;;9.77;76.11
4392;BME280;2210;51.938;8.488;2024-02-21T18:26:32;99644.06;;;9.71;77.30
4392;BME280;2210;51.938;8.488;2024-02-21T18:30:33;99637.66;;;9.65;77.92
4392;BME280;2210;51.938;8.488;2024-02-21T18:34:33;99625.50;;;9.61;78.16
4392;BME280;2210;51.938;8.488;2024-02-21T18:38:37;99615.50;;;9.55;78.20
4392;BME280;2210;51.938;8.488;2024-02-21T18:42:43;99592.31;;;9.51;79.32
4392;BME280;2210;51.938;8.488;2024-02-21T18:46:43;99587.06;;;9.49;79.48
4392;BME280;2210;51.938;8.488;2024-02-21T18:50:44;99574.66;;;9.47;79.45
4392;BME280;2210;51.938;8.488;2024-02-21T18:54:44;99563.09;;;9.44;78.74
4392;BME280;2210;51.938;8.488;2024-02-21T18:58:56;99565.50;;;9.41;78.72
4392;BME280;2210;51.938;8.488;2024-02-21T19:02:57;99548.75;;;9.42;78.72
4392;BME280;2210;51.938;8.488;2024-02-21T19:06:57;99539.34;;;9.38;79.06
4392;BME280;2210;51.938;8.488;2024-02-21T19:10:57;99524.34;;;9.29;80.97
4392;BME280;2210;51.938;8.488;2024-02-21T19:14:58;99521.78;;;9.22;81.79
4392;BME280;2210;51.938;8.488;2024-02-21T19:18:58;99521.13;;;9.15;83.53
4392;BME280;2210;51.938;8.488;2024-02-21T19:22:58;99513.56;;;9.05;85.15
4392;BME280;2210;51.938;8.488;2024-02-21T19:26:58;99501.81;;;9.10;84.85
4392;BME280;2210;51.938;8.488;2024-02-21T19:30:59;99492.56;;;8.99;88.35
4392;BME280;2210;51.938;8.488;2024-02-21T19:34:59;99487.59;;;8.96;88.55
4392;BME280;2210;51.938;8.488;2024-02-21T19:39:01;99482.00;;;8.91;90.38
4392;BME280;2210;51.938;8.488;2024-02-21T19:43:02;99477.53;;;8.85;93.63
4392;BME280;2210;51.938;8.488;2024-02-21T19:47:02;99482.63;;;8.76;95.41
4392;BME280;2210;51.938;8.488;2024-02-21T19:51:04;99470.16;;;8.68;99.18
4392;BME280;2210;51.938;8.488;2024-02-21T19:55:04;99457.31;;;8.57;100.00
4392;BME280;2210;51.938;8.488;2024-02-21T19:59:05;99448.69;;;8.48;100.00
4392;BME280;2210;51.938;8.488;2024-02-21T20:03:06;99445.22;;;8.41;100.00
4392;BME280;2210;51.938;8.488;2024-02-21T20:07:12;99433.31;;;8.35;100.00
4392;BME280;2210;51.938;8.488;2024-02-21T20:11:13;99419.03;;;8.33;100.00
4392;BME280;2210;51.938;8.488;2024-02-21T20:15:14;99409.13;;;8.32;100.00
4392;BME280;2210;51.938;8.488;2024-02-21T20:19:14;99401.38;;;8.29;100.00
4392;BME280;2210;51.938;8.488;2024-02-21T20:23:16;99390.88;;;8.26;100.00
4392;BME280;2210;51.938;8.488;2024-02-21T20:27:18;99378.25;;;8.25;100.00
4392;BME280;2210;51.938;8.488;2024-02-21T20:31:18;99375.75;;;8.23;100.00
4392;BME280;2210;51.938;8.488;2024-02-21T20:35:23;99358.94;;;8.20;100.00
4392;BME280;2210;51.938;8.488;2024-02-21T20:39:24;99359.53;;;8.22;100.00
4392;BME280;2210;51.938;8.488;2024-02-21T20:43:25;99350.13;;;8.18;100.00
4392;BME280;2210;51.938;8.488;2024-02-21T20:47:28;99344.63;;;8.18;100.00
4392;BME280;2210;51.938;8.488;2024-02-21T20:51:28;99343.00;;;8.17;100.00
4392;BME280;2210;51.938;8.488;2024-02-21T20:55:29;99332.50;;;8.14;100.00
4392;BME280;2210;51.938;8.488;2024-02-21T20:59:30;99314.38;;;8.13;100.00
4392;BME280;2210;51.938;8.488;2024-02-21T21:03:30;99316.00;;;8.14;100.00
4392;BME280;2210;51.938;8.488;2024-02-21T21:07:33;99313.00;;;8.15;100.00
4392;BME280;2210;51.938;8.488;2024-02-21T21:11:33;99308.94;;;8.18;100.00
4392;BME280;2210;51.938;8.488;2024-02-21T21:15:33;99304.03;;;8.20;100.00
4392;BME280;2210;51.938;8.488;2024-02-21T21:19:33;99299.72;;;8.24;100.00
4392;BME280;2210;51.938;8.488;2024-02-21T21:23:33;99283.56;;;8.27;100.00
4392;BME280;2210;51.938;8.488;2024-02-21T21:27:34;99283.31;;;8.29;100.00
4392;BME280;2210;51.938;8.488;2024-02-21T21:31:35;99276.53;;;8.37;100.00
4392;BME280;2210;51.938;8.488;2024-02-21T21:35:35;99263.13;;;8.40;100.00
4392;BME280;2210;51.938;8.488;2024-02-21T21:39:36;99246.41;;;8.42;100.00
4392;BME280;2210;51.938;8.488;2024-02-21T21:43:37;99242.09;;;8.46;100.00
4392;BME280;2210;51.938;8.488;2024-02-21T21:47:39;99245.97;;;8.50;100.00
4392;BME280;2210;51.938;8.488;2024-02-21T21:51:41;99240.88;;;8.59;100.00